KBDL/BDL METAR and TAF weather

Enter ICAO airport designator
Station Type Date Time Source
KBDL METAR 2022/06/25 21:51 UTC NOAA

KBDL 252151Z VRB03KT 10SM FEW065 FEW250 32/13 A3007 RMK AO2 SLP180 T03220128


Station Type Date Time Source
KBDL Decoded METAR 2022/06/25 21:51 UTC NOAA

BRADLEY INTERNATIONAL AIRPORT , CT, United States (KBDL) 41-56N 072-41W 60M
Jun 25, 2022 - 05:51 PM EDT / 2022.06.25 2151 UTC
Wind: Variable at 3 MPH (3 KT):0
Visibility: 10 mile(s):0
Sky conditions: mostly clear
Temperature: 90.0 F (32.2 C)
Dew Point: 55.0 F (12.8 C)
Relative Humidity: 30%
Pressure (altimeter): 30.07 in. Hg (1018 hPa)
ob: KBDL 252151Z VRB03KT 10SM FEW065 FEW250 32/13 A3007 RMK AO2 SLP180 T03220128
cycle: 22

Station Type Date Time Source
KBDL TAF 2022/06/25 21:03 UTC NOAA

TAF
AMD KBDL 252100Z 2521/2624 31005KT P6SM FEW060
FM260300 00000KT P6SM FEW250
FM261200 17003KT P6SM FEW250
FM261500 20007KT P6SM FEW060

Example: see airport list